Time;durP1;ratioP1;P1;durP2;ratioP2;P2;SDS_P1;SDS_P2;PMS_P1;PMS_P2;Temp;Humidity;BMP_temperature;BMP_pressure;BME280_temperature;BME280_humidity;BME280_pressure;Samples;Min_cycle;Max_cycle;Signal;HPM_P1;HPM_P2
2022/10/09 00:01:12;;;;;;;8.15;5.43;;;7.60;99.90;;;;;;5008525;28;20277;-76
2022/10/09 00:03:39;;;;;;;6.65;4.95;;;7.50;99.90;;;;;;5019982;28;20204;-73
2022/10/09 00:06:07;;;;;;;5.90;4.97;;;7.50;99.90;;;;;;5021345;28;20177;-73
2022/10/09 00:08:34;;;;;;;7.25;4.80;;;7.40;99.90;;;;;;5013289;28;20539;-73
2022/10/09 00:11:05;;;;;;;4.50;4.10;;;7.40;99.90;;;;;;5026559;28;20172;-72
2022/10/09 00:13:30;;;;;;;5.07;4.57;;;7.40;99.90;;;;;;5019633;28;20427;-72
2022/10/09 00:15:56;;;;;;;4.80;4.32;;;7.30;99.90;;;;;;5022572;28;20644;-72
2022/10/09 00:18:21;;;;;;;6.07;4.72;;;7.40;99.90;;;;;;5014851;28;20636;-72
2022/10/09 00:20:47;;;;;;;6.93;5.03;;;7.30;99.90;;;;;;5019794;28;20192;-74
2022/10/09 00:23:15;;;;;;;5.10;4.30;;;7.30;99.90;;;;;;5015512;28;20208;-74
2022/10/09 00:25:51;;;;;;;7.50;5.03;;;7.20;99.90;;;;;;5015572;28;20185;-72
2022/10/09 00:28:17;;;;;;;4.82;4.43;;;7.20;99.90;;;;;;5014734;28;20640;-73
2022/10/09 00:30:42;;;;;;;5.68;4.50;;;7.20;99.90;;;;;;5022824;28;20199;-74
2022/10/09 00:33:08;;;;;;;5.13;4.70;;;7.10;99.90;;;;;;5025425;28;20197;-73
2022/10/09 00:35:37;;;;;;;7.47;5.63;;;7.00;99.90;;;;;;5018774;28;20186;-74
2022/10/09 00:38:03;;;;;;;5.70;4.57;;;7.00;99.90;;;;;;5014876;28;20188;-74
2022/10/09 00:40:29;;;;;;;6.28;4.50;;;6.90;99.90;;;;;;5015534;28;20276;-75
2022/10/09 00:42:56;;;;;;;5.38;4.82;;;6.80;99.90;;;;;;5025906;28;20208;-73
2022/10/09 00:45:22;;;;;;;6.05;4.55;;;6.80;99.90;;;;;;5023447;28;20716;-74
2022/10/09 00:47:51;;;;;;;8.25;4.97;;;6.70;99.90;;;;;;5028065;28;20265;-74
2022/10/09 00:50:39;;;;;;;7.28;4.15;;;6.70;99.90;;;;;;5016489;28;20181;-75
2022/10/09 00:53:04;;;;;;;8.20;5.47;;;6.70;99.90;;;;;;5022806;28;20284;-74
2022/10/09 00:55:33;;;;;;;6.35;4.85;;;6.70;99.90;;;;;;5021844;28;20404;-74
2022/10/09 00:57:59;;;;;;;5.15;4.63;;;6.60;99.90;;;;;;5016634;28;20284;-73
2022/10/09 01:00:26;;;;;;;5.70;4.80;;;6.50;99.90;;;;;;5020447;28;20235;-73
2022/10/09 01:02:52;;;;;;;6.03;4.95;;;6.50;99.90;;;;;;5024853;28;20209;-72
2022/10/09 01:05:23;;;;;;;6.38;5.20;;;6.60;99.90;;;;;;5016286;28;20543;-73
2022/10/09 01:08:09;;;;;;;5.57;5.00;;;6.60;99.90;;;;;;5014271;28;20180;-73
2022/10/09 01:10:39;;;;;;;5.13;4.50;;;6.60;99.90;;;;;;5014744;28;20168;-73
2022/10/09 01:13:23;;;;;;;4.82;4.40;;;6.60;99.90;;;;;;5022062;28;20570;-74
2022/10/09 01:15:53;;;;;;;5.53;4.78;;;6.60;99.90;;;;;;5007773;28;20188;-74
2022/10/09 01:18:26;;;;;;;7.20;4.68;;;6.60;99.90;;;;;;5005220;28;20216;-73
2022/10/09 01:21:10;;;;;;;7.07;4.70;;;6.50;99.90;;;;;;5010610;28;20213;-73
2022/10/09 01:23:42;;;;;;;4.82;4.43;;;6.60;99.90;;;;;;5008387;28;20205;-72
2022/10/09 01:26:35;;;;;;;4.57;4.15;;;6.60;99.90;;;;;;5011685;28;20563;-72
2022/10/09 01:29:05;;;;;;;5.15;4.72;;;6.50;99.90;;;;;;5009276;28;20181;-75
2022/10/09 01:31:35;;;;;;;6.55;4.93;;;6.50;99.90;;;;;;5011833;28;20181;-73
2022/10/09 01:34:02;;;;;;;5.13;4.30;;;6.40;99.90;;;;;;5017745;28;20205;-72
2022/10/09 01:36:32;;;;;;;5.32;3.97;;;6.40;99.90;;;;;;5013275;28;20276;-73
2022/10/09 01:39:00;;;;;;;5.88;4.32;;;6.40;99.90;;;;;;5012912;28;20377;-72
2022/10/09 01:41:26;;;;;;;6.72;4.47;;;6.30;99.90;;;;;;5020546;28;20192;-74
2022/10/09 01:43:52;;;;;;;7.45;4.95;;;6.30;99.90;;;;;;5017592;28;20208;-74
2022/10/09 01:46:29;;;;;;;8.10;4.40;;;6.30;99.90;;;;;;5015780;28;20172;-74
2022/10/09 01:49:11;;;;;;;5.07;4.30;;;6.20;99.90;;;;;;5017290;28;20181;-73
2022/10/09 01:52:01;;;;;;;4.65;4.25;;;6.20;99.90;;;;;;5017601;28;20181;-72
2022/10/09 01:54:49;;;;;;;5.50;4.18;;;6.30;99.90;;;;;;5015445;28;20564;-72
2022/10/09 01:57:22;;;;;;;4.50;4.10;;;6.30;99.90;;;;;;5016857;28;20276;-72
2022/10/09 01:59:50;;;;;;;5.25;4.65;;;6.30;99.90;;;;;;5013339;28;20651;-72
2022/10/09 02:02:16;;;;;;;4.80;4.40;;;6.50;99.90;;;;;;5020677;28;20696;-73
2022/10/09 02:04:43;;;;;;;4.80;4.13;;;6.50;99.90;;;;;;5015853;28;20223;-74
2022/10/09 02:07:09;;;;;;;5.15;4.57;;;6.50;99.90;;;;;;5013237;28;20184;-74
2022/10/09 02:09:37;;;;;;;5.82;4.22;;;6.50;99.90;;;;;;5020033;28;20551;-74
2022/10/09 02:12:07;;;;;;;5.68;4.50;;;6.50;99.90;;;;;;5018270;28;20176;-74
2022/10/09 02:14:33;;;;;;;5.00;4.47;;;6.50;99.90;;;;;;5023734;28;20731;-74
2022/10/09 02:17:06;;;;;;;7.00;3.92;;;6.40;99.90;;;;;;5014739;28;20185;-73
2022/10/09 02:19:40;;;;;;;4.35;4.00;;;6.30;99.90;;;;;;5016266;28;20192;-74
2022/10/09 02:22:17;;;;;;;4.68;4.18;;;6.20;99.90;;;;;;5015669;28;20177;-75
2022/10/09 02:24:43;;;;;;;5.43;4.32;;;6.10;99.90;;;;;;5012222;28;20671;-73
2022/10/09 02:27:11;;;;;;;4.78;4.38;;;6.10;99.90;;;;;;5022011;28;20185;-75
2022/10/09 02:29:41;;;;;;;4.90;4.03;;;6.10;99.90;;;;;;5015085;28;20200;-74
2022/10/09 02:32:07;;;;;;;6.88;4.25;;;6.00;99.90;;;;;;5016998;28;20208;-74
2022/10/09 02:34:33;;;;;;;7.72;4.55;;;5.90;99.90;;;;;;5007156;28;20290;-72
2022/10/09 02:36:59;;;;;;;4.82;4.05;;;5.90;99.90;;;;;;5027316;28;20640;-73
2022/10/09 02:39:24;;;;;;;5.22;4.55;;;5.90;99.90;;;;;;5020225;28;20177;-73
2022/10/09 02:41:50;;;;;;;4.78;4.38;;;5.80;99.90;;;;;;5014400;28;20538;-73
2022/10/09 02:44:15;;;;;;;6.03;4.28;;;5.80;99.90;;;;;;5013806;28;20296;-73
2022/10/09 02:46:41;;;;;;;5.43;4.28;;;5.70;99.90;;;;;;5018509;28;20648;-73
2022/10/09 02:49:06;;;;;;;4.88;4.18;;;5.70;99.90;;;;;;5019469;28;20181;-74
2022/10/09 02:51:33;;;;;;;4.60;4.20;;;5.70;99.90;;;;;;5013544;28;20185;-74
2022/10/09 02:53:58;;;;;;;6.25;4.32;;;5.60;99.90;;;;;;5018857;28;20201;-72
2022/10/09 02:56:25;;;;;;;4.32;3.90;;;5.70;99.90;;;;;;5010773;28;20203;-72
2022/10/09 02:58:51;;;;;;;6.55;4.38;;;5.60;99.90;;;;;;5021001;28;20188;-72
2022/10/09 03:01:16;;;;;;;4.13;3.72;;;5.50;99.90;;;;;;5015183;28;20176;-72
2022/10/09 03:03:46;;;;;;;4.78;4.28;;;5.50;99.90;;;;;;5022037;28;20216;-73
2022/10/09 03:06:15;;;;;;;4.28;3.90;;;5.40;99.90;;;;;;5004330;28;20188;-73
2022/10/09 03:08:43;;;;;;;7.97;4.68;;;5.40;99.90;;;;;;5011349;28;20280;-72
2022/10/09 03:11:10;;;;;;;6.60;4.53;;;5.30;99.90;;;;;;5010653;28;20187;-74
2022/10/09 03:13:36;;;;;;;6.32;5.20;;;5.30;99.90;;;;;;5015971;28;20220;-74
2022/10/09 03:16:06;;;;;;;4.85;4.35;;;5.30;99.90;;;;;;5017818;28;20184;-73
2022/10/09 03:18:32;;;;;;;5.07;4.68;;;5.30;99.90;;;;;;5018177;28;20207;-74
2022/10/09 03:20:58;;;;;;;6.53;4.47;;;5.40;99.90;;;;;;5009767;28;20540;-74
2022/10/09 03:23:24;;;;;;;18.30;6.32;;;5.40;99.90;;;;;;5015538;28;20639;-74
2022/10/09 03:25:57;;;;;;;12.57;5.88;;;5.50;99.90;;;;;;5013575;28;20203;-72
2022/10/09 03:28:22;;;;;;;15.25;5.13;;;5.60;99.90;;;;;;5013289;28;20172;-73
2022/10/09 03:30:48;;;;;;;11.73;5.43;;;5.60;99.90;;;;;;5010929;28;20188;-73
2022/10/09 03:33:14;;;;;;;6.13;4.40;;;5.70;99.90;;;;;;5015210;28;20207;-73
2022/10/09 03:35:40;;;;;;;4.47;4.18;;;5.80;99.90;;;;;;5013917;28;20192;-72
2022/10/09 03:38:06;;;;;;;5.53;4.22;;;5.80;99.90;;;;;;5015601;28;20261;-72
2022/10/09 03:40:31;;;;;;;4.07;3.78;;;5.70;99.90;;;;;;5025144;28;20720;-73
2022/10/09 03:42:57;;;;;;;4.05;3.78;;;5.70;99.90;;;;;;5017673;28;20208;-73
2022/10/09 03:45:22;;;;;;;4.78;4.38;;;5.80;99.90;;;;;;5020739;28;20582;-74
2022/10/09 03:47:48;;;;;;;4.20;3.90;;;5.80;99.90;;;;;;5022337;28;20173;-73
2022/10/09 03:50:14;;;;;;;8.60;4.07;;;5.80;99.90;;;;;;5020261;28;20181;-73
2022/10/09 03:52:39;;;;;;;3.80;3.60;;;5.80;99.90;;;;;;5018138;28;20265;-72
2022/10/09 03:55:06;;;;;;;5.03;4.40;;;5.80;99.90;;;;;;5023419;28;20185;-73
2022/10/09 03:57:32;;;;;;;28.25;5.50;;;5.80;99.90;;;;;;5018333;28;20201;-73
2022/10/09 03:59:57;;;;;;;4.10;3.80;;;5.80;99.90;;;;;;5016124;28;20264;-73
2022/10/09 04:02:23;;;;;;;3.90;3.50;;;5.80;99.90;;;;;;5022637;28;20695;-73
2022/10/09 04:04:48;;;;;;;5.22;4.07;;;5.80;99.90;;;;;;5016076;28;20188;-73
2022/10/09 04:07:14;;;;;;;7.45;4.57;;;5.80;99.90;;;;;;5022940;28;20686;-73
2022/10/09 04:09:39;;;;;;;4.28;3.88;;;5.80;99.90;;;;;;5016922;28;20192;-73
2022/10/09 04:12:05;;;;;;;4.00;3.70;;;5.80;99.90;;;;;;5022827;28;20182;-73
2022/10/09 04:14:31;;;;;;;5.35;4.13;;;5.90;99.90;;;;;;5016236;28;20696;-73
2022/10/09 04:16:56;;;;;;;7.53;4.53;;;5.90;99.90;;;;;;5024144;28;20706;-72
2022/10/09 04:19:22;;;;;;;6.55;4.13;;;6.00;99.90;;;;;;5014089;28;20177;-74
2022/10/09 04:21:47;;;;;;;6.03;4.30;;;6.00;99.90;;;;;;5012433;28;20205;-73
2022/10/09 04:24:13;;;;;;;7.55;3.88;;;5.90;99.90;;;;;;5011506;28;20566;-72
2022/10/09 04:26:39;;;;;;;9.43;4.43;;;5.90;99.90;;;;;;5008526;28;20193;-73
2022/10/09 04:29:04;;;;;;;7.50;3.83;;;5.80;99.90;;;;;;5006513;28;20247;-73
2022/10/09 04:31:31;;;;;;;3.95;3.65;;;5.80;99.90;;;;;;5006957;28;20185;-73
2022/10/09 04:33:56;;;;;;;6.47;3.70;;;5.80;99.90;;;;;;5007312;28;20572;-73
2022/10/09 04:36:22;;;;;;;3.60;3.40;;;5.80;99.90;;;;;;5008981;28;20186;-72
2022/10/09 04:38:48;;;;;;;4.78;3.55;;;5.80;99.90;;;;;;5013773;28;20190;-73
2022/10/09 04:41:13;;;;;;;8.52;3.70;;;5.80;99.90;;;;;;5022699;28;20268;-73
2022/10/09 04:43:39;;;;;;;18.67;5.25;;;5.80;99.90;;;;;;5008745;28;20205;-73
2022/10/09 04:46:06;;;;;;;10.13;4.10;;;5.80;99.90;;;;;;5007232;28;20181;-74
2022/10/09 04:48:40;;;;;;;7.53;3.90;;;5.70;99.90;;;;;;5007060;28;20184;-74
2022/10/09 04:51:06;;;;;;;3.88;3.53;;;5.70;99.90;;;;;;5005007;28;20174;-74
2022/10/09 04:53:33;;;;;;;7.70;4.35;;;5.70;99.90;;;;;;5001444;28;20694;-74
2022/10/09 04:56:02;;;;;;;6.97;4.63;;;5.70;99.90;;;;;;5002006;28;20178;-74
2022/10/09 04:58:29;;;;;;;4.55;4.15;;;5.70;99.90;;;;;;4999304;28;20192;-73
2022/10/09 05:00:55;;;;;;;17.48;4.47;;;5.80;99.90;;;;;;4999971;28;20512;-74
2022/10/09 05:03:20;;;;;;;6.18;4.05;;;5.80;99.90;;;;;;5000018;28;20216;-73
2022/10/09 05:05:47;;;;;;;49.33;6.50;;;5.70;99.90;;;;;;5001150;28;20619;-73
2022/10/09 05:08:12;;;;;;;14.30;4.90;;;5.70;99.90;;;;;;5016036;28;20185;-74
2022/10/09 05:10:38;;;;;;;23.70;5.25;;;5.70;99.90;;;;;;4998198;28;20368;-74
2022/10/09 05:13:04;;;;;;;3.80;3.53;;;5.70;99.90;;;;;;5000532;28;20205;-73
2022/10/09 05:15:30;;;;;;;4.95;3.80;;;5.70;99.90;;;;;;5000705;28;20201;-74
2022/10/09 05:17:56;;;;;;;4.22;3.83;;;5.70;99.90;;;;;;5001995;28;20191;-73
2022/10/09 05:20:22;;;;;;;4.90;4.35;;;5.70;99.90;;;;;;5005833;28;20177;-73
2022/10/09 05:22:48;;;;;;;4.85;4.45;;;5.70;99.90;;;;;;5008318;28;20291;-79
2022/10/09 05:25:13;;;;;;;9.40;4.85;;;5.80;99.90;;;;;;5012115;28;20177;-80
2022/10/09 05:27:39;;;;;;;4.85;4.55;;;5.90;99.90;;;;;;5010273;28;20181;-80
2022/10/09 05:30:05;;;;;;;7.10;3.97;;;5.90;99.90;;;;;;5012301;28;20247;-80
2022/10/09 05:32:31;;;;;;;4.63;4.32;;;5.90;99.90;;;;;;5010120;28;21514;-80
2022/10/09 05:34:57;;;;;;;4.18;3.90;;;5.90;99.90;;;;;;5011436;28;20181;-79
2022/10/09 05:37:22;;;;;;;6.55;4.15;;;5.90;99.90;;;;;;5008951;28;20186;-79
2022/10/09 05:39:48;;;;;;;7.95;4.50;;;6.00;99.90;;;;;;5014438;28;20977;-77
2022/10/09 05:42:13;;;;;;;6.45;4.32;;;6.00;99.90;;;;;;5012544;28;20188;-77
2022/10/09 05:44:39;;;;;;;22.42;5.63;;;6.00;99.90;;;;;;5009992;28;20193;-77
2022/10/09 05:47:05;;;;;;;11.88;4.25;;;6.00;99.90;;;;;;5009031;28;20174;-78
2022/10/09 05:49:30;;;;;;;15.95;5.30;;;6.10;99.90;;;;;;5009236;28;20184;-78
2022/10/09 05:51:56;;;;;;;14.52;4.78;;;6.10;99.90;;;;;;5009011;28;20260;-78
2022/10/09 05:54:22;;;;;;;9.27;4.30;;;6.10;99.90;;;;;;5018124;28;20226;-73
2022/10/09 05:56:47;;;;;;;25.83;5.28;;;6.10;99.90;;;;;;5015617;28;20629;-73
2022/10/09 05:59:18;;;;;;;3.78;3.58;;;6.10;99.90;;;;;;5009822;28;20644;-73
2022/10/09 06:01:45;;;;;;;9.38;4.63;;;6.10;99.90;;;;;;5010890;28;20177;-74
2022/10/09 06:04:13;;;;;;;4.90;4.05;;;6.10;99.90;;;;;;5014055;28;20294;-73
2022/10/09 06:06:40;;;;;;;6.78;4.18;;;6.10;99.90;;;;;;5015489;28;20211;-73
2022/10/09 06:09:06;;;;;;;23.48;5.97;;;6.20;99.90;;;;;;5013198;28;20672;-73
2022/10/09 06:11:34;;;;;;;12.98;4.03;;;6.20;99.90;;;;;;5014252;28;20189;-74
2022/10/09 06:14:03;;;;;;;17.17;5.13;;;6.30;99.90;;;;;;5015040;28;20197;-74
2022/10/09 06:16:32;;;;;;;12.82;4.78;;;6.30;99.90;;;;;;5009874;28;20655;-74
2022/10/09 06:18:58;;;;;;;4.88;4.55;;;6.20;99.90;;;;;;5008545;28;20181;-74
2022/10/09 06:21:25;;;;;;;4.43;4.13;;;6.30;99.90;;;;;;5015707;28;20231;-74
2022/10/09 06:23:56;;;;;;;11.50;4.80;;;6.30;99.90;;;;;;5013129;28;20248;-74
2022/10/09 06:26:23;;;;;;;9.02;4.60;;;6.40;99.90;;;;;;5017694;28;20181;-74
2022/10/09 06:28:50;;;;;;;4.35;4.03;;;6.50;99.90;;;;;;5020400;28;20610;-74
2022/10/09 06:31:18;;;;;;;4.10;3.80;;;6.60;99.90;;;;;;5013728;28;20180;-75
2022/10/09 06:33:46;;;;;;;4.43;4.07;;;6.70;99.90;;;;;;5010590;28;20745;-74
2022/10/09 06:36:14;;;;;;;5.78;4.45;;;6.80;99.90;;;;;;5002413;28;20195;-74
2022/10/09 06:38:40;;;;;;;4.07;3.78;;;7.00;99.90;;;;;;5006063;28;20185;-75
2022/10/09 06:41:18;;;;;;;6.70;3.90;;;7.00;99.90;;;;;;5009073;28;20201;-74
2022/10/09 06:43:49;;;;;;;7.22;4.15;;;7.00;99.90;;;;;;5004481;28;20208;-75
2022/10/09 06:46:14;;;;;;;9.93;4.78;;;7.00;99.90;;;;;;5008985;28;20169;-74
2022/10/09 06:48:40;;;;;;;19.67;5.13;;;6.80;99.90;;;;;;5006312;28;20565;-74
2022/10/09 06:51:11;;;;;;;5.72;3.92;;;6.70;99.90;;;;;;5007671;28;20199;-76
2022/10/09 06:53:42;;;;;;;6.47;4.20;;;6.60;99.90;;;;;;5006405;28;20209;-74
2022/10/09 06:56:09;;;;;;;8.05;4.50;;;6.80;99.90;;;;;;5007540;28;20189;-74
2022/10/09 06:58:39;;;;;;;4.70;4.15;;;6.90;99.90;;;;;;5007649;28;20239;-74
2022/10/09 07:01:20;;;;;;;4.30;4.00;;;7.00;99.90;;;;;;5010492;28;20185;-75
2022/10/09 07:03:51;;;;;;;4.75;4.03;;;7.10;99.90;;;;;;5018144;28;20650;-74
2022/10/09 07:06:25;;;;;;;4.18;3.88;;;7.30;99.90;;;;;;5007185;28;20196;-73
2022/10/09 07:08:55;;;;;;;5.07;4.55;;;7.50;99.90;;;;;;4998956;28;20543;-73
2022/10/09 07:11:23;;;;;;;4.45;3.92;;;7.60;99.90;;;;;;5008195;28;20260;-74
2022/10/09 07:13:52;;;;;;;4.30;3.80;;;7.80;99.90;;;;;;5012178;28;20695;-74
2022/10/09 07:16:29;;;;;;;4.65;4.15;;;7.80;99.90;;;;;;5009286;28;20190;-74
2022/10/09 07:18:55;;;;;;;4.93;4.43;;;8.00;99.90;;;;;;5008437;28;20598;-75
2022/10/09 07:21:22;;;;;;;7.88;4.50;;;8.10;99.90;;;;;;5011833;28;20185;-75
2022/10/09 07:23:48;;;;;;;4.60;4.30;;;8.10;99.90;;;;;;5004137;28;20205;-74
2022/10/09 07:26:35;;;;;;;3.97;3.67;;;8.20;99.90;;;;;;5008419;28;20175;-74
2022/10/09 07:29:01;;;;;;;4.50;4.10;;;8.20;99.90;;;;;;5006762;28;20276;-75
2022/10/09 07:31:26;;;;;;;12.38;4.13;;;8.30;99.90;;;;;;5009778;28;20285;-75
2022/10/09 07:33:54;;;;;;;6.75;4.20;;;8.30;99.90;;;;;;5004395;28;20583;-74
2022/10/09 07:36:20;;;;;;;5.28;3.90;;;8.30;99.90;;;;;;5006552;28;20200;-75
2022/10/09 07:38:50;;;;;;;21.38;5.07;;;8.50;99.90;;;;;;5003543;28;20268;-76
2022/10/09 07:41:16;;;;;;;4.88;4.40;;;8.80;99.90;;;;;;5007752;28;20250;-74
2022/10/09 07:43:42;;;;;;;6.18;4.20;;;8.80;99.90;;;;;;5007118;28;20209;-75
2022/10/09 07:46:11;;;;;;;5.28;4.78;;;8.90;99.90;;;;;;5010043;28;20180;-75
2022/10/09 07:48:37;;;;;;;7.60;5.03;;;9.10;99.90;;;;;;5007290;28;20241;-75
2022/10/09 07:51:07;;;;;;;4.75;4.03;;;9.20;99.90;;;;;;5007004;28;20579;-75
2022/10/09 07:53:33;;;;;;;4.80;4.38;;;9.30;99.90;;;;;;5007343;28;20208;-75
2022/10/09 07:55:59;;;;;;;4.15;3.85;;;9.40;99.90;;;;;;5007301;28;20185;-75
2022/10/09 07:58:24;;;;;;;4.35;4.05;;;9.50;99.90;;;;;;5012994;28;20268;-75
2022/10/09 08:00:50;;;;;;;5.13;4.63;;;9.80;99.90;;;;;;5006553;28;20269;-75
2022/10/09 08:03:15;;;;;;;4.40;4.00;;;10.00;99.90;;;;;;5010307;28;20566;-76
2022/10/09 08:05:41;;;;;;;4.05;3.75;;;10.10;99.90;;;;;;5005832;28;20249;-77
2022/10/09 08:08:07;;;;;;;4.63;4.22;;;10.30;99.90;;;;;;5018028;28;20173;-78
2022/10/09 08:10:32;;;;;;;4.30;4.00;;;10.30;99.90;;;;;;5020400;28;20180;-78
2022/10/09 08:12:58;;;;;;;4.97;4.20;;;10.30;99.90;;;;;;5014188;28;20233;-75
2022/10/09 08:15:24;;;;;;;4.07;3.78;;;10.40;99.90;;;;;;5009403;28;20192;-78
2022/10/09 08:17:53;;;;;;;4.80;4.40;;;10.40;99.90;;;;;;5024032;28;20193;-75
2022/10/09 08:20:19;;;;;;;5.05;4.65;;;10.40;99.90;;;;;;5030053;28;20184;-79
2022/10/09 08:22:44;;;;;;;4.53;4.22;;;10.50;99.90;;;;;;5025039;28;20339;-79
2022/10/09 08:25:10;;;;;;;4.72;4.40;;;10.70;99.90;;;;;;5029979;28;20192;-79
2022/10/09 08:27:35;;;;;;;5.28;4.53;;;10.90;99.90;;;;;;5024061;28;20177;-79
2022/10/09 08:30:01;;;;;;;6.43;4.68;;;11.00;99.90;;;;;;5017664;28;20193;-79
2022/10/09 08:32:27;;;;;;;4.95;4.18;;;11.00;99.90;;;;;;5020836;28;20184;-80
2022/10/09 08:34:52;;;;;;;4.38;4.07;;;10.90;99.90;;;;;;5018272;28;20243;-80
2022/10/09 08:37:18;;;;;;;4.38;4.07;;;11.00;99.90;;;;;;5020131;28;20189;-79
2022/10/09 08:39:43;;;;;;;4.70;4.30;;;11.00;99.90;;;;;;5020789;28;20621;-80
2022/10/09 08:42:27;;;;;;;4.57;4.25;;;11.10;99.90;;;;;;5016245;28;20700;-80
2022/10/09 08:44:53;;;;;;;4.55;4.15;;;11.30;99.90;;;;;;5017626;28;20181;-80
2022/10/09 08:47:19;;;;;;;4.63;4.22;;;11.20;99.90;;;;;;5018485;28;20260;-80
2022/10/09 08:50:07;;;;;;;4.65;4.25;;;11.30;99.90;;;;;;5013365;28;20245;-81
2022/10/09 08:52:44;;;;;;;4.28;3.88;;;11.50;99.90;;;;;;5015883;28;20189;-80
2022/10/09 08:55:30;;;;;;;4.63;3.75;;;11.80;99.90;;;;;;5016105;28;20604;-79
2022/10/09 08:58:03;;;;;;;5.30;3.80;;;11.90;99.90;;;;;;5015883;28;20188;-80
2022/10/09 09:00:36;;;;;;;4.38;3.97;;;12.00;99.90;;;;;;5012282;28;20205;-78
2022/10/09 09:03:29;;;;;;;4.45;4.05;;;12.20;99.90;;;;;;5011187;28;20253;-78
2022/10/09 09:05:57;;;;;;;4.20;3.67;;;12.40;99.90;;;;;;5011791;28;20181;-78
2022/10/09 09:08:51;;;;;;;4.32;3.92;;;12.70;99.90;;;;;;5009696;28;20193;-77
2022/10/09 09:11:43;;;;;;;3.90;3.60;;;13.40;99.90;;;;;;5009944;28;20239;-79
2022/10/09 09:14:37;;;;;;;3.65;3.45;;;14.50;99.90;;;;;;5009581;28;20263;-79
2022/10/09 09:17:31;;;;;;;4.00;3.72;;;16.00;99.90;;;;;;5016680;28;20178;-79
2022/10/09 09:20:09;;;;;;;3.40;3.10;;;17.10;99.90;;;;;;5004050;28;20353;-78
2022/10/09 09:22:38;;;;;;;3.28;3.03;;;17.90;99.90;;;;;;5008913;28;20205;-78
2022/10/09 09:25:17;;;;;;;3.85;2.90;;;19.00;99.90;;;;;;5007828;28;20178;-78
2022/10/09 09:27:43;;;;;;;3.38;3.10;;;20.20;99.90;;;;;;5005352;28;20176;-79
2022/10/09 09:30:18;;;;;;;6.60;3.47;;;21.00;98.70;;;;;;5008500;28;20185;-79
2022/10/09 09:33:14;;;;;;;3.22;3.00;;;21.90;95.50;;;;;;5007692;28;20220;-78
2022/10/09 09:35:54;;;;;;;3.42;2.90;;;22.80;91.50;;;;;;5007234;28;20185;-79
2022/10/09 09:38:20;;;;;;;3.15;2.90;;;23.40;89.00;;;;;;5009309;28;20193;-78
2022/10/09 09:40:46;;;;;;;3.55;3.10;;;24.50;83.50;;;;;;5005033;28;20181;-79
2022/10/09 09:43:20;;;;;;;3.42;3.13;;;25.50;77.40;;;;;;5007538;28;20263;-79
2022/10/09 09:45:47;;;;;;;3.22;2.92;;;25.80;74.20;;;;;;5006235;28;20189;-80
2022/10/09 09:48:35;;;;;;;3.47;2.58;;;26.00;71.80;;;;;;5007106;28;20300;-79
2022/10/09 09:51:04;;;;;;;3.33;3.03;;;25.80;70.60;;;;;;5008099;28;20186;-79
2022/10/09 09:53:38;;;;;;;3.13;2.92;;;25.80;70.00;;;;;;5008192;28;20263;-79
2022/10/09 09:56:04;;;;;;;3.40;3.10;;;25.60;70.90;;;;;;5006766;28;20284;-79
2022/10/09 09:58:38;;;;;;;3.20;2.90;;;26.00;69.20;;;;;;5008484;28;20181;-79
2022/10/09 10:01:05;;;;;;;3.45;3.15;;;26.40;67.40;;;;;;5021933;28;20184;-79
2022/10/09 10:03:34;;;;;;;3.05;2.83;;;26.80;66.50;;;;;;5011450;28;20583;-78
2022/10/09 10:06:00;;;;;;;2.88;2.60;;;27.30;64.20;;;;;;5006567;28;20270;-79
2022/10/09 10:08:31;;;;;;;3.70;2.83;;;28.20;61.20;;;;;;5012363;28;20299;-79
2022/10/09 10:11:04;;;;;;;4.20;3.05;;;28.50;59.30;;;;;;5009625;28;20174;-79
2022/10/09 10:13:37;;;;;;;3.30;3.08;;;28.60;58.80;;;;;;5004497;28;20538;-77
2022/10/09 10:16:04;;;;;;;3.13;2.80;;;28.90;58.70;;;;;;5008612;28;20185;-75
2022/10/09 10:18:39;;;;;;;3.45;3.15;;;29.40;58.10;;;;;;5009519;28;20189;-76
2022/10/09 10:21:14;;;;;;;3.42;2.80;;;30.20;56.00;;;;;;5008968;28;20267;-76
2022/10/09 10:23:57;;;;;;;2.42;2.22;;;30.10;54.50;;;;;;5010217;28;20222;-76
2022/10/09 10:26:57;;;;;;;2.30;2.20;;;29.80;54.30;;;;;;5011265;28;20177;-77
2022/10/09 10:29:37;;;;;;;3.15;2.80;;;29.20;54.60;;;;;;4995306;28;20193;-77
2022/10/09 10:32:11;;;;;;;2.60;2.40;;;28.70;55.80;;;;;;5013442;28;20169;-78
2022/10/09 10:34:40;;;;;;;2.58;2.42;;;28.10;56.20;;;;;;5017179;28;20251;-77
2022/10/09 10:37:25;;;;;;;2.92;2.55;;;27.60;56.60;;;;;;5014731;28;20182;-77
2022/10/09 10:40:06;;;;;;;2.40;2.20;;;27.40;57.00;;;;;;5011099;28;20999;-77
2022/10/09 10:42:53;;;;;;;2.40;1.90;;;27.20;56.70;;;;;;5011599;28;20219;-77
2022/10/09 10:45:34;;;;;;;3.42;2.15;;;27.40;55.20;;;;;;5015153;28;20535;-78
2022/10/09 10:48:01;;;;;;;1.85;1.75;;;27.90;54.00;;;;;;5019315;28;20598;-78
2022/10/09 10:50:37;;;;;;;2.33;2.13;;;27.90;54.30;;;;;;5017065;28;20173;-77
2022/10/09 10:53:31;;;;;;;1.75;1.65;;;27.90;53.90;;;;;;5018321;28;20618;-78
2022/10/09 10:56:09;;;;;;;2.28;2.10;;;27.60;54.40;;;;;;5012920;28;20188;-78
2022/10/09 10:58:49;;;;;;;2.40;2.20;;;27.80;54.40;;;;;;5004010;28;20715;-77
2022/10/09 11:01:27;;;;;;;1.95;1.85;;;27.80;54.10;;;;;;5002847;28;20267;-77
2022/10/09 11:04:38;;;;;;;2.17;2.05;;;27.60;53.80;;;;;;4995154;28;20220;-77
2022/10/09 11:07:31;;;;;;;1.95;1.75;;;27.10;55.00;;;;;;5004051;28;20840;-78
2022/10/09 11:10:18;;;;;;;3.20;2.00;;;27.00;54.70;;;;;;5003760;28;20292;-78
2022/10/09 11:13:10;;;;;;;2.03;1.90;;;26.70;54.60;;;;;;5002487;28;20205;-78
2022/10/09 11:15:53;;;;;;;2.72;1.80;;;26.40;55.10;;;;;;5002231;28;20181;-78
2022/10/09 11:18:43;;;;;;;1.80;1.70;;;27.60;53.20;;;;;;5006267;28;20306;-78
2022/10/09 11:21:29;;;;;;;2.42;1.70;;;28.50;51.80;;;;;;5010592;28;20672;-78
2022/10/09 11:24:00;;;;;;;1.85;1.75;;;29.60;50.40;;;;;;5018889;28;20642;-78
2022/10/09 11:26:26;;;;;;;1.95;1.85;;;30.50;49.60;;;;;;5014432;28;20278;-77
2022/10/09 11:28:59;;;;;;;2.40;1.80;;;30.80;47.40;;;;;;5006636;28;20180;-78
2022/10/09 11:31:37;;;;;;;1.83;1.67;;;30.70;48.00;;;;;;5008735;28;20187;-78
2022/10/09 11:34:10;;;;;;;1.65;1.55;;;30.40;47.10;;;;;;5008594;28;20200;-79
2022/10/09 11:36:40;;;;;;;3.10;2.00;;;30.00;47.60;;;;;;5012076;28;20544;-78
2022/10/09 11:39:24;;;;;;;4.55;1.90;;;29.40;48.90;;;;;;5013903;28;20177;-78
2022/10/09 11:41:52;;;;;;;1.95;1.60;;;28.70;49.30;;;;;;5013029;28;20187;-78
2022/10/09 11:44:42;;;;;;;1.60;1.48;;;28.30;49.70;;;;;;5011430;28;20224;-78
2022/10/09 11:47:30;;;;;;;1.65;1.45;;;27.90;50.40;;;;;;5020176;28;20184;-77
2022/10/09 11:50:33;;;;;;;1.75;1.65;;;27.90;51.00;;;;;;5007606;28;20651;-78
2022/10/09 11:53:07;;;;;;;1.55;1.40;;;28.20;50.60;;;;;;5008402;28;20270;-78
2022/10/09 11:55:33;;;;;;;1.70;1.40;;;28.70;49.10;;;;;;5014013;28;20188;-78
2022/10/09 11:58:13;;;;;;;1.85;1.75;;;28.90;49.40;;;;;;5013174;28;20188;-78
2022/10/09 12:00:39;;;;;;;1.65;1.55;;;29.00;48.90;;;;;;5020204;28;20238;-77
2022/10/09 12:03:06;;;;;;;2.22;1.77;;;29.00;49.10;;;;;;5011721;28;20692;-77
2022/10/09 12:05:40;;;;;;;1.63;1.52;;;28.70;50.20;;;;;;5012523;28;20249;-77
2022/10/09 12:08:10;;;;;;;1.55;1.45;;;28.70;50.80;;;;;;5013489;28;20299;-76
2022/10/09 12:10:41;;;;;;;3.58;1.98;;;28.40;51.00;;;;;;5011888;28;20173;-77
2022/10/09 12:13:27;;;;;;;1.92;1.50;;;28.20;51.00;;;;;;5011057;28;20216;-76
2022/10/09 12:15:56;;;;;;;1.75;1.42;;;28.30;50.70;;;;;;5018902;28;20280;-77
2022/10/09 12:18:38;;;;;;;1.80;1.70;;;28.40;51.30;;;;;;5017461;28;20236;-77
2022/10/09 12:21:07;;;;;;;3.22;2.10;;;28.10;51.60;;;;;;5008620;28;20177;-78
2022/10/09 12:23:38;;;;;;;3.08;1.90;;;28.00;52.30;;;;;;5010641;28;20261;-77
2022/10/09 12:26:05;;;;;;;1.80;1.50;;;27.80;52.60;;;;;;5017421;28;20723;-77
2022/10/09 12:28:48;;;;;;;2.00;1.83;;;27.70;52.80;;;;;;5017339;28;20209;-76
2022/10/09 12:31:30;;;;;;;1.80;1.70;;;26.50;53.30;;;;;;5016095;28;20250;-77
2022/10/09 12:34:16;;;;;;;2.30;2.00;;;25.90;55.30;;;;;;5015029;28;20205;-77
2022/10/09 12:36:42;;;;;;;3.67;1.88;;;25.40;56.90;;;;;;5014262;28;20187;-77
2022/10/09 12:39:18;;;;;;;1.67;1.60;;;24.60;58.30;;;;;;5017846;28;20267;-77
2022/10/09 12:41:47;;;;;;;1.67;1.58;;;23.90;59.20;;;;;;5017198;28;20208;-76
2022/10/09 12:44:29;;;;;;;2.30;1.70;;;23.50;60.10;;;;;;5019232;28;20199;-77
2022/10/09 12:47:22;;;;;;;3.58;1.88;;;23.40;60.40;;;;;;5006052;28;20173;-75
2022/10/09 12:50:20;;;;;;;2.85;1.80;;;23.10;61.10;;;;;;5013382;28;20284;-76
2022/10/09 12:52:47;;;;;;;2.53;1.95;;;23.10;63.00;;;;;;5010966;28;20706;-77
2022/10/09 12:55:27;;;;;;;2.08;1.98;;;23.00;62.10;;;;;;5013077;28;20288;-76
2022/10/09 12:57:56;;;;;;;4.32;3.60;;;22.70;62.40;;;;;;5013082;28;20271;-77
2022/10/09 13:00:22;;;;;;;2.30;2.10;;;22.60;63.70;;;;;;5012137;28;20565;-76
2022/10/09 13:02:47;;;;;;;2.65;1.90;;;22.60;63.50;;;;;;5011353;28;20517;-75
2022/10/09 13:05:13;;;;;;;2.40;2.30;;;22.40;63.80;;;;;;5016560;28;20193;-76
2022/10/09 13:07:39;;;;;;;3.28;2.00;;;22.20;63.40;;;;;;5009369;28;20186;-76
2022/10/09 13:10:17;;;;;;;2.58;2.30;;;22.10;64.50;;;;;;5013168;28;20193;-77
2022/10/09 13:12:56;;;;;;;2.60;2.40;;;21.80;64.30;;;;;;5015359;28;20254;-76